Aviation Digital Data Service (ADDS)

Output produced by METARs form (1724 UTC 25 September 2016)
found at http://aviationweather.gov/adds/metars/
 
KTOL 251120Z 2512/2612 00000KT P6SM SKC 
     FM251500 10006KT P6SM SKC 
     FM260000 12004KT P6SM OVC250 
     FM260600 19004KT P6SM OVC035 
     FM261000 22007KT P6SM -SHRA OVC025